createdAt,value
2022-11-24T00:02:24.585Z,6.72
2022-11-24T00:04:51.311Z,6.38
2022-11-24T00:07:17.804Z,6.32
2022-11-24T00:09:44.391Z,6.53
2022-11-24T00:12:10.864Z,6.55
2022-11-24T00:14:37.351Z,5.80
2022-11-24T00:17:03.903Z,5.20
2022-11-24T00:19:30.488Z,5.85
2022-11-24T00:21:57.009Z,5.00
2022-11-24T00:24:23.493Z,4.85
2022-11-24T00:26:50.098Z,5.40
2022-11-24T00:29:16.652Z,5.60
2022-11-24T00:31:43.169Z,4.53
2022-11-24T00:34:14.270Z,5.20
2022-11-24T00:36:41.444Z,5.35
2022-11-24T00:39:11.725Z,5.68
2022-11-24T00:41:38.629Z,5.13
2022-11-24T00:44:05.544Z,5.05
2022-11-24T00:46:32.306Z,4.78
2022-11-24T00:49:00.321Z,4.05
2022-11-24T00:51:28.041Z,4.25
2022-11-24T00:53:55.476Z,4.38
2022-11-24T00:56:22.400Z,4.53
2022-11-24T00:58:48.890Z,4.88
2022-11-24T01:01:18.204Z,4.75
2022-11-24T01:03:46.709Z,4.57
2022-11-24T01:06:16.421Z,4.50
2022-11-24T01:08:43.347Z,4.85
2022-11-24T01:11:24.792Z,4.32
2022-11-24T01:13:59.533Z,4.43
2022-11-24T01:16:31.896Z,4.75
2022-11-24T01:18:59.763Z,4.20
2022-11-24T01:21:26.381Z,4.65
2022-11-24T01:23:53.187Z,4.13
2022-11-24T01:26:21.514Z,4.53
2022-11-24T01:28:55.620Z,4.60
2022-11-24T01:31:22.661Z,4.53
2022-11-24T01:33:49.195Z,4.38
2022-11-24T01:36:15.714Z,4.47
2022-11-24T01:38:42.206Z,4.43
2022-11-24T01:41:15.909Z,4.22
2022-11-24T01:43:43.595Z,3.83
2022-11-24T01:46:26.230Z,4.78
2022-11-24T01:49:12.536Z,5.20
2022-11-24T01:51:50.575Z,4.95
2022-11-24T01:54:22.797Z,4.32
2022-11-24T01:56:52.164Z,3.70
2022-11-24T01:59:19.914Z,3.33
2022-11-24T02:01:47.185Z,3.25
2022-11-24T02:04:16.324Z,4.03
2022-11-24T02:06:43.969Z,2.88
2022-11-24T02:09:34.250Z,2.95
2022-11-24T02:12:01.553Z,2.83
2022-11-24T02:14:28.472Z,2.53
2022-11-24T02:16:55.056Z,2.50
2022-11-24T02:19:39.480Z,1.95
2022-11-24T02:22:16.377Z,1.55
2022-11-24T02:24:52.663Z,1.83
2022-11-24T02:27:19.509Z,1.35
2022-11-24T02:29:46.211Z,0.90
2022-11-24T02:32:12.764Z,0.60
2022-11-24T02:34:39.311Z,0.70
2022-11-24T02:37:05.827Z,0.60
2022-11-24T02:39:34.047Z,0.50
2022-11-24T02:42:05.838Z,0.60
2022-11-24T02:44:42.132Z,0.73
2022-11-24T02:47:10.928Z,1.02
2022-11-24T02:49:37.805Z,1.30
2022-11-24T02:52:05.338Z,1.52
2022-11-24T02:54:32.594Z,1.80
2022-11-24T02:56:59.419Z,2.00
2022-11-24T02:59:26.166Z,2.10
2022-11-24T03:01:52.836Z,2.22
2022-11-24T03:04:19.319Z,2.08
2022-11-24T03:06:45.818Z,2.30
2022-11-24T03:09:12.330Z,3.00
2022-11-24T03:11:39.283Z,3.50
2022-11-24T03:14:06.587Z,3.60
2022-11-24T03:16:33.410Z,3.83
2022-11-24T03:19:00.240Z,3.70
2022-11-24T03:21:26.746Z,4.55
2022-11-24T03:23:53.341Z,4.07
2022-11-24T03:26:21.919Z,3.72
2022-11-24T03:28:48.414Z,4.80
2022-11-24T03:31:15.141Z,4.15
2022-11-24T03:33:41.643Z,4.43
2022-11-24T03:36:08.717Z,4.65
2022-11-24T03:38:35.328Z,4.68
2022-11-24T03:41:01.866Z,4.35
2022-11-24T03:43:28.370Z,4.03
2022-11-24T03:45:54.848Z,4.57
2022-11-24T03:48:21.623Z,4.45
2022-11-24T03:50:59.220Z,4.68
2022-11-24T03:53:28.238Z,3.88
2022-11-24T03:55:54.886Z,3.58
2022-11-24T03:58:21.488Z,3.88
2022-11-24T04:00:52.748Z,3.33
2022-11-24T04:03:19.811Z,2.70
2022-11-24T04:05:47.028Z,2.22
2022-11-24T04:08:14.088Z,2.15
2022-11-24T04:10:40.633Z,2.35
2022-11-24T04:13:17.972Z,2.67
2022-11-24T04:15:44.718Z,2.63
2022-11-24T04:18:12.309Z,2.13
2022-11-24T04:20:39.283Z,2.33
2022-11-24T04:23:05.982Z,1.95
2022-11-24T04:25:32.655Z,1.70
2022-11-24T04:27:59.287Z,1.40
2022-11-24T04:30:27.333Z,1.23
2022-11-24T04:32:53.939Z,1.55
2022-11-24T04:35:21.107Z,1.90
2022-11-24T04:37:47.627Z,1.20
2022-11-24T04:40:14.566Z,1.30
2022-11-24T04:42:41.206Z,1.30
2022-11-24T04:45:08.384Z,1.20
2022-11-24T04:47:35.009Z,1.50
2022-11-24T04:50:01.706Z,2.10
2022-11-24T04:52:29.961Z,1.60
2022-11-24T04:54:56.442Z,1.42
2022-11-24T04:57:25.313Z,1.75
2022-11-24T04:59:52.924Z,1.88
2022-11-24T05:02:20.316Z,1.80
2022-11-24T05:04:46.913Z,1.60
2022-11-24T05:07:18.291Z,2.05
2022-11-24T05:10:07.360Z,1.92
2022-11-24T05:12:33.856Z,2.83
2022-11-24T05:15:01.701Z,2.40
2022-11-24T05:17:30.727Z,2.53
2022-11-24T05:19:57.796Z,2.72
2022-11-24T05:22:24.464Z,2.75
2022-11-24T05:24:51.274Z,3.25
2022-11-24T05:27:17.770Z,3.33
2022-11-24T05:29:44.555Z,3.30
2022-11-24T05:32:11.209Z,3.42
2022-11-24T05:34:37.776Z,3.10
2022-11-24T05:37:04.354Z,4.25
2022-11-24T05:39:35.738Z,4.45
2022-11-24T05:42:30.408Z,4.05
2022-11-24T05:44:57.544Z,3.28
2022-11-24T05:47:24.344Z,2.90
2022-11-24T05:49:50.935Z,3.40
2022-11-24T05:52:17.526Z,3.05
2022-11-24T05:54:44.029Z,2.72
2022-11-24T05:57:10.573Z,2.88
2022-11-24T05:59:37.069Z,3.45
2022-11-24T06:02:03.733Z,3.45
2022-11-24T06:04:30.288Z,4.03
2022-11-24T06:06:56.831Z,4.22
2022-11-24T06:09:23.313Z,4.15
2022-11-24T06:11:49.942Z,4.95
2022-11-24T06:14:16.545Z,5.68
2022-11-24T06:16:43.125Z,5.63
2022-11-24T06:19:10.872Z,5.55
2022-11-24T06:21:37.474Z,4.75
2022-11-24T06:24:04.599Z,6.07
2022-11-24T06:26:31.091Z,5.38
2022-11-24T06:28:57.656Z,5.90
2022-11-24T06:31:24.235Z,5.55
2022-11-24T06:33:50.866Z,5.47
2022-11-24T06:36:17.490Z,5.28
2022-11-24T06:38:43.970Z,5.57
2022-11-24T06:41:13.962Z,5.47
2022-11-24T06:43:40.642Z,4.32
2022-11-24T06:46:07.453Z,4.32
2022-11-24T06:48:34.276Z,4.13
2022-11-24T06:51:02.526Z,4.68
2022-11-24T06:53:33.293Z,4.97
2022-11-24T06:56:01.055Z,5.00
2022-11-24T06:58:27.783Z,3.80
2022-11-24T07:00:54.512Z,3.92
2022-11-24T07:03:21.664Z,4.82
2022-11-24T07:05:48.356Z,3.92
2022-11-24T07:08:17.926Z,3.83
2022-11-24T07:10:44.815Z,3.90
2022-11-24T07:13:11.325Z,5.05
2022-11-24T07:15:37.857Z,4.20
2022-11-24T07:18:04.521Z,4.20
2022-11-24T07:20:31.020Z,3.85
2022-11-24T07:22:58.005Z,3.78
2022-11-24T07:25:25.337Z,4.13
2022-11-24T07:27:59.311Z,3.83
2022-11-24T07:30:27.277Z,3.85
2022-11-24T07:33:03.932Z,4.65
2022-11-24T07:35:30.840Z,4.05
2022-11-24T07:37:58.493Z,3.90
2022-11-24T07:40:26.959Z,4.60
2022-11-24T07:42:54.060Z,4.20
2022-11-24T07:45:20.582Z,4.85
2022-11-24T07:47:47.123Z,3.80
2022-11-24T07:50:13.749Z,4.60
2022-11-24T07:52:40.354Z,4.45
2022-11-24T07:55:07.936Z,4.03
2022-11-24T07:57:34.725Z,3.70
2022-11-24T08:00:01.350Z,4.43
2022-11-24T08:02:27.880Z,4.63
2022-11-24T08:04:54.432Z,4.28
2022-11-24T08:07:20.922Z,4.50
2022-11-24T08:09:47.472Z,3.80
2022-11-24T08:12:14.068Z,4.00
2022-11-24T08:14:40.535Z,3.78
2022-11-24T08:17:07.131Z,3.40
2022-11-24T08:19:34.816Z,3.03
2022-11-24T08:22:01.326Z,3.25
2022-11-24T08:24:27.805Z,4.38
2022-11-24T08:26:54.584Z,4.25
2022-11-24T08:29:21.124Z,3.30
2022-11-24T08:31:47.633Z,3.40
2022-11-24T08:34:14.116Z,3.40
2022-11-24T08:36:40.615Z,3.65
2022-11-24T08:39:07.131Z,2.88
2022-11-24T08:41:33.736Z,3.90
2022-11-24T08:44:00.269Z,3.42
2022-11-24T08:46:26.783Z,2.78
2022-11-24T08:48:54.546Z,3.42
2022-11-24T08:51:23.795Z,3.35
2022-11-24T08:53:54.209Z,3.92
2022-11-24T08:56:20.705Z,3.10
2022-11-24T08:58:47.208Z,2.97
2022-11-24T09:01:15.372Z,2.95
2022-11-24T09:03:48.599Z,2.90
2022-11-24T09:06:18.310Z,3.08
2022-11-24T09:08:44.833Z,3.50
2022-11-24T09:11:13.376Z,3.17
2022-11-24T09:13:40.417Z,3.20
2022-11-24T09:16:09.714Z,3.05
2022-11-24T09:18:36.497Z,3.10
2022-11-24T09:21:11.377Z,3.28
2022-11-24T09:23:38.258Z,3.42
2022-11-24T09:26:11.019Z,3.08
2022-11-24T09:28:37.875Z,3.90
2022-11-24T09:31:06.023Z,3.92
2022-11-24T09:33:33.237Z,3.53
2022-11-24T09:36:00.119Z,4.50
2022-11-24T09:38:27.315Z,3.50
2022-11-24T09:40:55.554Z,3.53
2022-11-24T09:43:36.469Z,3.70
2022-11-24T09:46:10.672Z,3.50
2022-11-24T09:48:40.923Z,4.18
2022-11-24T09:51:12.464Z,3.15
2022-11-24T09:54:08.364Z,3.90
2022-11-24T09:56:36.983Z,3.78
2022-11-24T09:59:16.308Z,4.55
2022-11-24T10:01:45.021Z,3.97
2022-11-24T10:04:29.898Z,3.60
2022-11-24T10:07:11.446Z,3.75
2022-11-24T10:09:56.482Z,4.50
2022-11-24T10:12:23.006Z,4.85
2022-11-24T10:15:16.586Z,3.88
2022-11-24T10:17:43.602Z,4.80
2022-11-24T10:20:22.574Z,4.60
2022-11-24T10:23:04.247Z,4.95
2022-11-24T10:25:40.322Z,5.38
2022-11-24T10:28:11.982Z,4.43
2022-11-24T10:30:38.632Z,5.15
2022-11-24T10:33:16.462Z,4.47
2022-11-24T10:35:48.930Z,4.22
2022-11-24T10:38:21.634Z,4.47
2022-11-24T10:40:59.609Z,4.68
2022-11-24T10:43:28.169Z,4.40
2022-11-24T10:45:58.767Z,5.15
2022-11-24T10:48:26.683Z,4.85
2022-11-24T10:50:54.936Z,4.18
2022-11-24T10:53:27.989Z,3.95
2022-11-24T10:55:54.456Z,4.72
2022-11-24T10:58:37.606Z,4.80
2022-11-24T11:01:28.680Z,5.10
2022-11-24T11:03:57.870Z,5.00
2022-11-24T11:06:27.083Z,4.72
2022-11-24T11:09:13.506Z,4.20
2022-11-24T11:11:41.579Z,5.88
2022-11-24T11:14:10.604Z,4.72
2022-11-24T11:16:38.764Z,4.15
2022-11-24T11:19:47.806Z,4.63
2022-11-24T11:22:16.854Z,5.47
2022-11-24T11:24:45.251Z,4.80
2022-11-24T11:27:18.913Z,4.90
2022-11-24T11:35:19.269Z,5.05
2022-11-24T11:37:47.253Z,4.95
2022-11-24T11:40:17.963Z,4.55
2022-11-24T11:43:02.549Z,4.80
2022-11-24T11:45:43.366Z,4.60
2022-11-24T11:48:27.657Z,4.13
2022-11-24T11:51:22.361Z,4.28
2022-11-24T11:54:10.407Z,4.78
2022-11-24T11:56:46.083Z,5.15
2022-11-24T11:59:30.977Z,4.20
2022-11-24T12:02:32.765Z,4.68
2022-11-24T12:05:20.472Z,4.20
2022-11-24T12:08:11.655Z,4.32
2022-11-24T12:11:09.252Z,4.20
2022-11-24T12:13:54.043Z,5.70
2022-11-24T12:16:48.043Z,5.00
2022-11-24T12:19:36.757Z,5.85
2022-11-24T12:22:18.773Z,5.68
2022-11-24T12:25:14.411Z,5.65
2022-11-24T12:27:50.626Z,4.38
2022-11-24T12:30:18.444Z,4.72
2022-11-24T12:32:47.931Z,4.65
2022-11-24T12:35:14.652Z,5.22
2022-11-24T12:38:11.419Z,3.92
2022-11-24T12:40:46.446Z,4.63
2022-11-24T12:43:20.082Z,4.35
2022-11-24T12:45:55.867Z,4.80
2022-11-24T12:48:45.750Z,5.00
2022-11-24T12:51:20.990Z,5.05
2022-11-24T12:56:16.372Z,4.40
2022-11-24T12:58:51.902Z,4.25
2022-11-24T13:01:39.311Z,5.03
2022-11-24T13:04:29.501Z,5.13
2022-11-24T13:07:21.471Z,5.15
2022-11-24T13:10:40.436Z,5.07
2022-11-24T13:13:12.747Z,5.53
2022-11-24T13:16:28.561Z,4.88
2022-11-24T13:18:47.382Z,5.55
2022-11-24T13:21:42.893Z,4.72
2022-11-24T13:24:19.498Z,5.53
2022-11-24T13:26:52.418Z,4.97
2022-11-24T13:29:28.194Z,5.80
2022-11-24T13:32:04.551Z,5.82
2022-11-24T13:34:40.391Z,4.55
2022-11-24T13:37:31.167Z,4.28
2022-11-24T13:40:03.782Z,4.78
2022-11-24T13:42:42.403Z,4.82
2022-11-24T13:45:39.758Z,4.90
2022-11-24T13:48:18.889Z,4.63
2022-11-24T13:50:51.979Z,4.38
2022-11-24T13:53:40.450Z,4.78
2022-11-24T13:56:22.688Z,4.07
2022-11-24T13:58:58.035Z,4.30
2022-11-24T14:01:28.427Z,3.95
2022-11-24T14:04:32.319Z,4.15
2022-11-24T14:07:07.815Z,4.40
2022-11-24T14:09:44.251Z,4.05
2022-11-24T14:12:17.747Z,5.18
2022-11-24T14:14:46.055Z,4.43
2022-11-24T14:17:22.689Z,3.97
2022-11-24T14:19:51.381Z,3.83
2022-11-24T14:22:19.641Z,4.70
2022-11-24T14:24:52.275Z,5.45
2022-11-24T14:27:30.816Z,4.60
2022-11-24T14:30:00.096Z,4.63
2022-11-24T14:32:26.984Z,4.93
2022-11-24T14:34:54.442Z,4.22
2022-11-24T14:37:21.357Z,4.78
2022-11-24T14:39:47.902Z,4.15
2022-11-24T14:42:27.804Z,4.25
2022-11-24T14:44:54.308Z,4.80
2022-11-24T14:47:32.621Z,4.57
2022-11-24T14:50:29.076Z,4.28
2022-11-24T14:52:59.043Z,4.97
2022-11-24T14:55:30.410Z,4.40
2022-11-24T14:57:57.865Z,4.10
2022-11-24T15:00:24.298Z,4.35
2022-11-24T15:03:16.072Z,4.40
2022-11-24T15:05:56.287Z,4.13
2022-11-24T15:08:25.025Z,3.72
2022-11-24T15:10:58.086Z,4.53
2022-11-24T15:13:25.147Z,5.88
2022-11-24T15:16:03.611Z,5.43
2022-11-24T15:18:41.090Z,4.97
2022-11-24T15:21:07.876Z,4.93
2022-11-24T15:23:35.192Z,5.00
2022-11-24T15:26:01.649Z,4.75
2022-11-24T15:28:29.675Z,5.90
2022-11-24T15:31:02.806Z,4.85
2022-11-24T15:33:29.887Z,4.22
2022-11-24T15:35:56.880Z,5.07
2022-11-24T15:38:23.716Z,4.20
2022-11-24T15:40:55.060Z,4.70
2022-11-24T15:43:31.028Z,4.85
2022-11-24T15:45:58.677Z,4.50
2022-11-24T15:48:25.581Z,4.50
2022-11-24T15:50:53.123Z,4.82
2022-11-24T15:53:25.735Z,4.55
2022-11-24T15:55:52.812Z,5.22
2022-11-24T15:58:19.648Z,4.05
2022-11-24T16:00:46.400Z,5.35
2022-11-24T16:03:44.941Z,5.18
2022-11-24T16:05:59.591Z,5.20
2022-11-24T16:08:26.097Z,5.40
2022-11-24T16:10:52.589Z,4.60
2022-11-24T16:13:19.190Z,4.57
2022-11-24T16:15:45.975Z,5.63
2022-11-24T16:18:13.936Z,4.47
2022-11-24T16:20:40.530Z,5.47
2022-11-24T16:23:07.069Z,5.43
2022-11-24T16:25:33.653Z,4.82
2022-11-24T16:28:00.120Z,5.43
2022-11-24T16:30:26.633Z,4.82
2022-11-24T16:32:53.260Z,5.43
2022-11-24T16:35:20.098Z,4.28
2022-11-24T16:37:46.690Z,5.10
2022-11-24T16:40:13.375Z,4.85
2022-11-24T16:42:39.866Z,4.22
2022-11-24T16:45:06.955Z,4.70
2022-11-24T16:47:39.671Z,4.43
2022-11-24T16:50:07.762Z,4.90
2022-11-24T16:52:34.246Z,4.43
2022-11-24T16:55:01.661Z,4.65
2022-11-24T16:57:28.206Z,5.25
2022-11-24T16:59:54.688Z,5.45
2022-11-24T17:02:21.270Z,4.57
2022-11-24T17:04:49.755Z,5.28
2022-11-24T17:07:16.350Z,6.03
2022-11-24T17:09:42.878Z,5.78
2022-11-24T17:12:09.364Z,5.13
2022-11-24T17:14:36.955Z,4.28
2022-11-24T17:17:06.644Z,5.00
2022-11-24T17:19:33.200Z,5.45
2022-11-24T17:21:59.903Z,5.22
2022-11-24T17:24:26.547Z,6.20
2022-11-24T17:26:53.290Z,4.97
2022-11-24T17:29:19.912Z,5.60
2022-11-24T17:31:46.669Z,4.57
2022-11-24T17:34:13.314Z,4.47
2022-11-24T17:36:41.417Z,6.10
2022-11-24T17:39:08.039Z,5.20
2022-11-24T17:41:34.835Z,4.70
2022-11-24T17:44:01.479Z,5.93
2022-11-24T17:46:29.177Z,4.85
2022-11-24T17:48:56.050Z,4.90
2022-11-24T17:51:24.177Z,5.07
2022-11-24T17:53:52.254Z,6.03
2022-11-24T17:56:22.914Z,5.22
2022-11-24T17:58:52.234Z,6.13
2022-11-24T18:01:19.307Z,5.05
2022-11-24T18:03:48.988Z,5.30
2022-11-24T18:06:19.799Z,5.50
2022-11-24T18:08:47.049Z,5.00
2022-11-24T18:11:32.040Z,11.98
2022-11-24T18:14:02.920Z,4.82
2022-11-24T18:16:31.590Z,5.10
2022-11-24T18:19:08.285Z,5.03
2022-11-24T18:21:35.140Z,4.68
2022-11-24T18:24:01.787Z,4.35
2022-11-24T18:26:28.672Z,5.75
2022-11-24T18:28:55.251Z,5.78
2022-11-24T18:31:22.491Z,5.43
2022-11-24T18:33:49.112Z,5.60
2022-11-24T18:36:18.947Z,4.88
2022-11-24T18:38:46.015Z,5.20
2022-11-24T18:41:14.003Z,5.03
2022-11-24T18:43:40.847Z,5.32
2022-11-24T18:46:15.320Z,4.97
2022-11-24T18:48:42.644Z,5.15
2022-11-24T18:51:14.294Z,5.07
2022-11-24T18:53:42.437Z,4.32
2022-11-24T18:56:15.744Z,5.25
2022-11-24T18:58:42.580Z,5.07
2022-11-24T19:01:17.359Z,4.90
2022-11-24T19:03:49.508Z,5.05
2022-11-24T19:06:33.534Z,5.22
2022-11-24T19:09:02.640Z,5.95
2022-11-24T19:11:37.506Z,5.28
2022-11-24T19:14:05.343Z,5.40
2022-11-24T19:16:32.063Z,4.75
2022-11-24T19:19:00.169Z,5.93
2022-11-24T19:21:27.842Z,4.78
2022-11-24T19:23:55.776Z,5.68
2022-11-24T19:26:24.321Z,5.80
2022-11-24T19:28:50.864Z,5.72
2022-11-24T19:31:20.190Z,5.20
2022-11-24T19:33:47.049Z,4.85
2022-11-24T19:36:19.120Z,5.72
2022-11-24T19:38:56.162Z,5.32
2022-11-24T19:41:25.193Z,5.28
2022-11-24T19:43:54.784Z,4.88
2022-11-24T19:46:22.951Z,5.28
2022-11-24T19:48:50.860Z,4.82
2022-11-24T19:51:22.446Z,4.53
2022-11-24T19:53:48.949Z,5.13
2022-11-24T19:56:18.379Z,5.82
2022-11-24T19:58:45.581Z,5.35
2022-11-24T20:01:14.423Z,5.78
2022-11-24T20:03:41.722Z,5.82
2022-11-24T20:06:10.120Z,5.65
2022-11-24T20:08:37.510Z,4.57
2022-11-24T20:11:12.343Z,5.38
2022-11-24T20:13:40.322Z,5.25
2022-11-24T20:16:12.702Z,5.00
2022-11-24T20:18:42.391Z,6.13
2022-11-24T20:21:10.504Z,5.68
2022-11-24T20:23:37.006Z,5.07
2022-11-24T20:26:08.946Z,5.10
2022-11-24T20:28:35.486Z,5.38
2022-11-24T20:31:07.540Z,5.30
2022-11-24T20:33:35.517Z,5.47
2022-11-24T20:36:10.672Z,5.63
2022-11-24T20:38:38.322Z,5.53
2022-11-24T20:41:09.603Z,5.95
2022-11-24T20:43:37.124Z,5.47
2022-11-24T20:46:12.148Z,5.50
2022-11-24T20:48:38.922Z,4.88
2022-11-24T20:51:10.496Z,5.53
2022-11-24T20:53:37.358Z,5.47
2022-11-24T20:56:06.496Z,5.55
2022-11-24T20:58:34.628Z,5.85
2022-11-24T21:01:11.540Z,5.25
2022-11-24T21:03:43.088Z,4.95
2022-11-24T21:06:11.201Z,5.40
2022-11-24T21:08:39.038Z,6.20
2022-11-24T21:11:06.948Z,5.20
2022-11-24T21:13:34.734Z,4.82
2022-11-24T21:16:06.613Z,4.45
2022-11-24T21:18:33.831Z,5.05
2022-11-24T21:21:00.365Z,5.05
2022-11-24T21:23:26.883Z,5.15
2022-11-24T21:25:53.360Z,4.70
2022-11-24T21:28:19.846Z,4.82
2022-11-24T21:30:46.321Z,5.05
2022-11-24T21:33:12.864Z,4.55
2022-11-24T21:35:39.502Z,4.82
2022-11-24T21:38:06.139Z,5.50
2022-11-24T21:40:32.634Z,5.10
2022-11-24T21:42:59.721Z,5.13
2022-11-24T21:45:29.138Z,4.05
2022-11-24T21:48:02.119Z,4.53
2022-11-24T21:50:28.726Z,3.72
2022-11-24T21:52:59.269Z,4.85
2022-11-24T21:55:28.650Z,5.03
2022-11-24T21:57:55.128Z,4.60
2022-11-24T22:00:21.716Z,4.53
2022-11-24T22:02:48.351Z,4.32
2022-11-24T22:05:14.879Z,4.88
2022-11-24T22:07:41.548Z,4.80
2022-11-24T22:10:08.766Z,5.18
2022-11-24T22:12:35.266Z,5.00
2022-11-24T22:15:01.787Z,4.45
2022-11-24T22:17:30.828Z,4.65
2022-11-24T22:19:57.326Z,4.82
2022-11-24T22:22:23.807Z,5.32
2022-11-24T22:24:50.341Z,5.00
2022-11-24T22:27:16.848Z,5.10
2022-11-24T22:29:43.312Z,4.65
2022-11-24T22:32:09.771Z,5.07
2022-11-24T22:34:36.305Z,5.22
2022-11-24T22:37:03.000Z,5.28
2022-11-24T22:39:29.506Z,5.22
2022-11-24T22:41:55.994Z,5.07
2022-11-24T22:44:22.482Z,5.70
2022-11-24T22:46:48.970Z,5.40
2022-11-24T22:49:15.399Z,4.82
2022-11-24T22:51:41.891Z,5.10
2022-11-24T22:54:11.751Z,6.45
2022-11-24T22:56:38.427Z,6.57
2022-11-24T22:59:05.077Z,5.82
2022-11-24T23:01:33.627Z,6.25
2022-11-24T23:04:00.320Z,6.35
2022-11-24T23:06:28.663Z,6.18
2022-11-24T23:08:55.686Z,6.70
2022-11-24T23:11:31.676Z,6.55
2022-11-24T23:14:01.946Z,6.47
2022-11-24T23:16:29.237Z,7.20
2022-11-24T23:18:56.133Z,7.45
2022-11-24T23:21:27.567Z,6.57
2022-11-24T23:23:54.397Z,5.97
2022-11-24T23:26:23.569Z,7.18
2022-11-24T23:28:50.690Z,7.38
2022-11-24T23:31:19.577Z,7.43
2022-11-24T23:33:46.501Z,7.40
2022-11-24T23:36:14.255Z,7.10
2022-11-24T23:38:41.169Z,8.02
2022-11-24T23:41:10.877Z,7.55
2022-11-24T23:43:39.206Z,7.65
2022-11-24T23:46:11.612Z,8.10
2022-11-24T23:48:38.878Z,8.13
2022-11-24T23:51:12.375Z,7.63
2022-11-24T23:53:39.382Z,6.93
2022-11-24T23:56:06.212Z,8.10
2022-11-24T23:58:33.035Z,7.13
